Aeroporto :
LOGIN :

Iscrizione | Disclaimer

   EN    FR    IT 

 










Sommario :    VFR   VFR Marginale   IFR   IFR Intensivo   IFR Molto Intensivo
Visibilità : 
Base nubi : 
>= 8 km
>= 3000ft
5 / 8 km
1000 / 3000 ft
1500m / 5 km
500 / 1000 ft
800 / 1500m
200 / 500 ft
< 800m
< 200 ft
Simboli :   Temporali  Nebbia  Neve Forte  Precipitazioni Forti  Vento > 20 kt
SIGMETs :   Varie  Temporali  Ghiacco  Turbolenza  Onda orograficha  Ceneri Vulcaniche






- Altitudine del aeroporto : 200 ft


EBBL - Klein Brogel AB

ULTIMO METAR :
  • 230425Z AUTO VRB02KT 2000 BR OVC059/// 08/08 Q1025 YLO

METARs OBSOLETI :
  • 230355Z AUTO VRB02KT 1800 BR FEW032/// OVC059/// 08/07 Q1025 YLO
  • 230346Z AUTO VRB01KT 1500 BR FEW032/// OVC059/// 08/07 Q1025 AMB
  • 230325Z AUTO 24003KT 3000 BR FEW032/// BKN060/// 08/08 Q1025 YLO
  • 230255Z AUTO 22004KT 3600 BR FEW036/// OVC052/// 08/08 Q1025 YLO
  • 230233Z AUTO 25003KT 3300 BR OVC039/// 08/08 Q1025 YLO
  • 230155Z AUTO 22004KT 3300 BR BKN035/// BKN065/// 08/08 Q1025 YLO

TAF TAF EBBL
Valido dal 22 a 19 ore il 23 a 07 ore UTC


221541Z 2219/2307 28007KT 7000 FEW020 BKN040
TEMPO 2219/2221 4000 -RA SCT020 BKN030
BECMG 2223/2301 24004KT 3000 BR SCT035
PROB40
TEMPO 2302/2307 VRB03KT 1000 BR



MetMap, La meteo Aeronautica in un colpo d'occhio ! - Copyright ORBIFLY Dicembre 2007 - Disclaimer

ORBIFLY MET'MAP TEAM :

Programmazione e sviluppo : Alexandra Zaïnal
Concezione : Baudouin d'Aumeries
Aiuto per la programmazione : Marc-Olivier Méhu
Supporto tecnico e logistico : Manuel Goepfert
Aiuto per la traduzione : Arnaldo La Scala

Contatto : metmap@orbifly.com




FONTI E CREDITI :

   NOAA